createdAt,value
2022-10-26T00:14:06.460Z,13.64
2022-10-26T00:24:18.790Z,13.61
2022-10-26T00:34:32.365Z,13.60
2022-10-26T00:45:03.361Z,13.63
2022-10-26T00:55:43.531Z,13.65
2022-10-26T01:06:32.394Z,13.65
2022-10-26T01:17:20.350Z,13.58
2022-10-26T01:28:00.095Z,13.56
2022-10-26T01:38:54.625Z,13.54
2022-10-26T01:49:18.697Z,13.50
2022-10-26T01:59:33.450Z,13.43
2022-10-26T02:10:33.519Z,13.35
2022-10-26T02:21:02.689Z,13.27
2022-10-26T02:31:32.771Z,13.23
2022-10-26T02:42:00.746Z,13.19
2022-10-26T02:52:34.479Z,13.21
2022-10-26T03:02:43.505Z,13.15
2022-10-26T03:13:00.632Z,13.10
2022-10-26T03:23:20.430Z,13.04
2022-10-26T03:33:53.967Z,13.01
2022-10-26T03:44:16.402Z,13.03
2022-10-26T03:54:30.436Z,13.02
2022-10-26T04:04:44.894Z,13.05
2022-10-26T04:14:57.203Z,13.08
2022-10-26T04:25:21.015Z,13.09
2022-10-26T04:46:06.875Z,12.92
2022-10-26T05:06:59.868Z,12.73
2022-10-26T05:17:14.839Z,12.67
2022-10-26T05:37:53.796Z,12.55
2022-10-26T05:48:13.040Z,12.53
2022-10-26T05:58:26.212Z,12.53
2022-10-26T06:08:43.552Z,12.61
2022-10-26T06:19:02.123Z,12.65
2022-10-26T06:29:45.076Z,12.72
2022-10-26T06:39:57.027Z,12.74
2022-10-26T06:50:38.855Z,12.83
2022-10-26T07:01:07.187Z,12.92
2022-10-26T07:11:26.708Z,13.02
2022-10-26T07:21:44.714Z,12.98
2022-10-26T07:42:18.248Z,12.82
2022-10-26T07:52:50.603Z,12.79
2022-10-26T08:03:04.205Z,12.90
2022-10-26T08:13:28.269Z,12.84
2022-10-26T08:34:05.075Z,12.85
2022-10-26T08:44:39.967Z,12.94
2022-10-26T08:55:01.046Z,13.07
2022-10-26T09:05:23.483Z,13.22
2022-10-26T09:15:57.421Z,13.32
2022-10-26T09:37:51.234Z,13.59
2022-10-26T09:48:19.921Z,13.66
2022-10-26T09:58:49.629Z,13.83
2022-10-26T10:09:48.882Z,13.92
2022-10-26T10:20:42.867Z,14.08
2022-10-26T10:31:29.194Z,14.12
2022-10-26T10:41:50.326Z,14.29
2022-10-26T10:52:44.569Z,14.46
2022-10-26T11:03:19.203Z,14.46
2022-10-26T11:14:15.230Z,14.38
2022-10-26T11:25:04.259Z,14.35
2022-10-26T11:35:41.000Z,14.40
2022-10-26T11:46:21.714Z,14.72
2022-10-26T11:56:53.891Z,14.86
2022-10-26T12:07:23.929Z,14.91
2022-10-26T12:17:45.459Z,14.92
2022-10-26T12:28:09.505Z,14.81
2022-10-26T12:38:44.800Z,14.80
2022-10-26T12:49:13.728Z,14.88
2022-10-26T12:59:57.283Z,15.01
2022-10-26T13:10:33.312Z,15.05
2022-10-26T13:21:09.023Z,15.10
2022-10-26T13:31:39.547Z,15.00
2022-10-26T13:42:10.987Z,14.86
2022-10-26T13:53:09.251Z,14.79
2022-10-26T14:04:10.730Z,14.81
2022-10-26T14:14:36.745Z,14.79
2022-10-26T14:24:52.235Z,14.54
2022-10-26T14:35:03.967Z,14.37
2022-10-26T14:45:53.072Z,14.29
2022-10-26T14:56:05.341Z,14.19
2022-10-26T15:06:45.825Z,14.08
2022-10-26T15:16:59.644Z,13.85
2022-10-26T15:27:12.386Z,13.58
2022-10-26T15:37:23.141Z,13.37
2022-10-26T15:47:33.625Z,13.07
2022-10-26T15:57:38.636Z,12.85
2022-10-26T16:07:52.011Z,12.54
2022-10-26T16:17:55.834Z,12.22
2022-10-26T16:28:01.338Z,11.90
2022-10-26T16:38:12.085Z,11.63
2022-10-26T16:48:19.008Z,11.47
2022-10-26T16:58:54.274Z,11.44
2022-10-26T17:09:02.243Z,11.33
2022-10-26T17:19:20.245Z,11.05
2022-10-26T17:29:27.264Z,10.85
2022-10-26T17:39:35.522Z,10.75
2022-10-26T17:49:40.097Z,10.56
2022-10-26T17:59:43.799Z,10.45
2022-10-26T18:09:47.499Z,10.42
2022-10-26T18:19:53.823Z,10.14
2022-10-26T18:29:59.804Z,10.03
2022-10-26T18:40:07.331Z,9.96
2022-10-26T18:50:23.171Z,9.84
2022-10-26T19:00:26.675Z,9.69
2022-10-26T19:20:49.138Z,9.64
2022-10-26T19:30:55.819Z,9.37
2022-10-26T19:41:33.535Z,9.31
2022-10-26T19:51:44.513Z,9.28
2022-10-26T20:01:48.735Z,9.42
2022-10-26T20:11:53.916Z,9.46
2022-10-26T20:22:03.916Z,9.52
2022-10-26T20:32:16.872Z,9.75
2022-10-26T20:42:30.610Z,9.82
2022-10-26T20:53:00.120Z,9.92
2022-10-26T21:03:05.076Z,9.90
2022-10-26T21:13:15.010Z,9.82
2022-10-26T21:23:25.621Z,9.50
2022-10-26T21:33:39.978Z,9.28
2022-10-26T21:44:08.383Z,9.19
2022-10-26T21:54:18.045Z,9.19
2022-10-26T22:04:24.382Z,9.05
2022-10-26T22:14:32.208Z,9.05
2022-10-26T22:24:39.393Z,8.90
2022-10-26T22:34:47.672Z,8.84
2022-10-26T22:44:52.634Z,8.79
2022-10-26T22:54:57.769Z,8.76
2022-10-26T23:05:02.545Z,8.72
2022-10-26T23:15:10.386Z,8.68
2022-10-26T23:25:19.291Z,8.67
2022-10-26T23:35:37.161Z,8.66
2022-10-26T23:45:40.641Z,8.68
2022-10-26T23:56:16.103Z,8.68
